createdAt,value
2017-06-30T00:02:11.052Z,57.87
2017-06-30T00:04:38.969Z,57.89
2017-06-30T00:07:06.881Z,57.90
2017-06-30T00:09:34.808Z,57.88
2017-06-30T00:12:02.721Z,57.91
2017-06-30T00:14:30.640Z,57.95
2017-06-30T00:16:58.576Z,57.90
2017-06-30T00:19:26.541Z,57.95
2017-06-30T00:21:54.481Z,57.94
2017-06-30T00:24:22.393Z,57.94
2017-06-30T00:26:50.314Z,57.94
2017-06-30T00:29:18.244Z,57.92
2017-06-30T00:31:46.197Z,57.94
2017-06-30T00:34:14.151Z,57.95
2017-06-30T00:36:42.060Z,57.94
2017-06-30T00:39:09.970Z,57.98
2017-06-30T00:41:37.898Z,57.96
2017-06-30T00:44:05.815Z,57.95
2017-06-30T00:46:33.727Z,57.95
2017-06-30T00:49:01.641Z,57.94
2017-06-30T00:51:29.582Z,57.94
2017-06-30T00:53:57.492Z,57.92
2017-06-30T00:56:25.412Z,57.95
2017-06-30T00:58:53.332Z,57.92
2017-06-30T01:01:21.241Z,57.92
2017-06-30T01:03:49.177Z,57.97
2017-06-30T01:06:17.128Z,57.93
2017-06-30T01:08:45.038Z,57.99
2017-06-30T01:11:12.953Z,57.99
2017-06-30T01:13:40.881Z,57.96
2017-06-30T01:16:08.819Z,58.02
2017-06-30T01:18:36.725Z,58.02
2017-06-30T01:21:04.683Z,58.03
2017-06-30T01:23:32.605Z,58.05
2017-06-30T01:26:00.562Z,58.04
2017-06-30T01:28:28.485Z,58.07
2017-06-30T01:30:56.448Z,58.07
2017-06-30T01:33:24.367Z,58.10
2017-06-30T01:35:52.300Z,58.11
2017-06-30T01:38:20.217Z,58.11
2017-06-30T01:40:48.134Z,58.11
2017-06-30T01:43:16.065Z,58.14
2017-06-30T01:45:43.993Z,58.15
2017-06-30T01:48:11.909Z,58.17
2017-06-30T01:50:39.837Z,58.15
2017-06-30T01:53:07.774Z,58.14
2017-06-30T01:55:35.720Z,58.17
2017-06-30T01:58:03.684Z,58.15
2017-06-30T02:00:31.601Z,58.18
2017-06-30T02:02:59.516Z,58.17
2017-06-30T02:05:27.448Z,58.19
2017-06-30T02:07:55.355Z,58.17
2017-06-30T02:10:23.256Z,58.20
2017-06-30T02:12:51.178Z,58.25
2017-06-30T02:15:19.089Z,58.23
2017-06-30T02:17:47.013Z,58.25
2017-06-30T02:20:14.920Z,58.27
2017-06-30T02:22:42.838Z,58.25
2017-06-30T02:25:10.755Z,58.21
2017-06-30T02:27:38.952Z,58.23
2017-06-30T02:30:06.866Z,58.26
2017-06-30T02:32:34.781Z,58.21
2017-06-30T02:35:02.712Z,58.21
2017-06-30T02:37:30.639Z,58.23
2017-06-30T02:39:58.556Z,58.22
2017-06-30T02:42:26.493Z,58.22
2017-06-30T02:44:54.421Z,58.23
2017-06-30T02:47:22.358Z,58.24
2017-06-30T02:49:50.264Z,58.24
2017-06-30T02:52:18.197Z,58.18
2017-06-30T02:54:46.108Z,58.20
2017-06-30T02:57:14.032Z,58.19
2017-06-30T02:59:41.937Z,58.18
2017-06-30T03:02:09.858Z,58.18
2017-06-30T03:04:37.797Z,58.18
2017-06-30T03:07:05.709Z,58.17
2017-06-30T03:09:33.636Z,58.17
2017-06-30T03:12:01.544Z,58.18
2017-06-30T03:14:29.469Z,58.18
2017-06-30T03:16:57.417Z,58.19
2017-06-30T03:19:25.336Z,58.20
2017-06-30T03:21:53.257Z,58.22
2017-06-30T03:24:21.164Z,58.22
2017-06-30T03:26:49.080Z,58.23
2017-06-30T03:29:17.058Z,58.26
2017-06-30T03:31:44.973Z,58.27
2017-06-30T03:34:12.897Z,58.25
2017-06-30T03:36:40.824Z,58.26
2017-06-30T03:39:08.988Z,58.26
2017-06-30T03:41:36.917Z,58.28
2017-06-30T03:44:04.866Z,58.30
2017-06-30T03:46:32.805Z,58.27
2017-06-30T03:49:00.738Z,58.27
2017-06-30T03:51:28.665Z,58.28
2017-06-30T03:53:56.575Z,58.33
2017-06-30T03:56:24.524Z,58.34
2017-06-30T03:58:52.463Z,58.33
2017-06-30T04:01:20.441Z,58.33
2017-06-30T04:03:48.388Z,58.32
2017-06-30T04:06:16.300Z,58.32
2017-06-30T04:08:44.243Z,58.33
2017-06-30T04:11:12.182Z,58.30
2017-06-30T04:13:40.102Z,58.34
2017-06-30T04:16:08.055Z,58.30
2017-06-30T04:18:35.970Z,58.30
2017-06-30T04:21:03.888Z,58.32
2017-06-30T04:23:31.793Z,58.29
2017-06-30T04:25:59.701Z,58.27
2017-06-30T04:28:27.621Z,58.25
2017-06-30T04:30:55.533Z,58.25
2017-06-30T04:33:23.456Z,58.26
2017-06-30T04:35:51.376Z,58.26
2017-06-30T04:38:19.304Z,58.21
2017-06-30T04:40:47.217Z,58.20
2017-06-30T04:43:15.278Z,58.20
2017-06-30T04:45:43.197Z,58.19
2017-06-30T04:48:11.109Z,58.17
2017-06-30T04:50:39.027Z,58.16
2017-06-30T04:53:06.948Z,58.13
2017-06-30T04:55:34.867Z,58.11
2017-06-30T04:58:02.822Z,58.11
2017-06-30T05:00:30.737Z,58.10
2017-06-30T05:02:58.644Z,58.09
2017-06-30T05:05:26.552Z,58.08
2017-06-30T05:07:54.491Z,58.09
2017-06-30T05:10:22.422Z,58.08
2017-06-30T05:12:50.354Z,58.07
2017-06-30T05:15:18.270Z,58.04
2017-06-30T05:17:46.205Z,58.04
2017-06-30T05:20:14.122Z,58.05
2017-06-30T05:22:42.040Z,58.07
2017-06-30T05:25:10.265Z,58.09
2017-06-30T05:27:38.182Z,58.09
2017-06-30T05:30:06.109Z,58.07
2017-06-30T05:32:34.025Z,58.07
2017-06-30T05:35:01.960Z,58.08
2017-06-30T05:37:29.909Z,58.07
2017-06-30T05:39:57.904Z,58.05
2017-06-30T05:42:25.926Z,57.22
2017-06-30T05:44:53.853Z,57.14
2017-06-30T05:47:21.809Z,57.37
2017-06-30T05:49:49.727Z,57.32
2017-06-30T05:52:17.646Z,57.39
2017-06-30T05:54:45.578Z,56.96
2017-06-30T05:57:13.506Z,57.42
2017-06-30T05:59:41.453Z,57.52
2017-06-30T06:02:09.408Z,57.91
2017-06-30T06:04:37.341Z,56.90
2017-06-30T06:07:05.308Z,56.82
2017-06-30T06:09:33.230Z,56.43
2017-06-30T06:12:01.145Z,58.67
2017-06-30T06:14:29.089Z,60.42
2017-06-30T06:16:57.027Z,60.54
2017-06-30T06:19:24.940Z,60.88
2017-06-30T06:21:52.851Z,61.43
2017-06-30T06:24:20.840Z,62.00
2017-06-30T06:26:48.757Z,62.42
2017-06-30T06:29:16.701Z,62.92
2017-06-30T06:31:44.625Z,63.33
2017-06-30T06:34:12.688Z,58.49
2017-06-30T06:36:40.608Z,62.39
2017-06-30T06:39:08.580Z,62.20
2017-06-30T06:41:36.495Z,61.65
2017-06-30T06:44:04.421Z,61.71
2017-06-30T06:46:32.337Z,61.55
2017-06-30T06:49:00.245Z,57.79
2017-06-30T06:51:28.200Z,57.94
2017-06-30T06:53:56.129Z,57.71
2017-06-30T06:56:24.054Z,57.62
2017-06-30T06:58:52.072Z,57.36
2017-06-30T07:01:19.990Z,57.23
2017-06-30T07:03:47.960Z,57.18
2017-06-30T07:06:15.912Z,57.02
2017-06-30T07:08:43.848Z,57.21
2017-06-30T07:11:11.798Z,57.12
2017-06-30T07:13:39.714Z,57.23
2017-06-30T07:16:07.625Z,56.79
2017-06-30T07:18:35.544Z,56.84
2017-06-30T07:21:03.456Z,56.76
2017-06-30T07:23:31.393Z,56.74
2017-06-30T07:25:59.507Z,56.76
2017-06-30T07:28:27.419Z,56.69
2017-06-30T07:30:55.328Z,56.70
2017-06-30T07:33:23.304Z,56.65
2017-06-30T07:35:51.294Z,56.68
2017-06-30T07:38:20.366Z,56.73
2017-06-30T07:40:48.302Z,56.87
2017-06-30T07:43:16.226Z,57.03
2017-06-30T07:45:44.195Z,56.95
2017-06-30T07:48:12.925Z,57.52
2017-06-30T07:50:40.852Z,57.58
2017-06-30T07:53:08.772Z,57.48
2017-06-30T07:55:36.696Z,57.53
2017-06-30T07:58:04.628Z,57.58
2017-06-30T08:00:32.615Z,57.67
2017-06-30T08:03:00.557Z,57.83
2017-06-30T08:05:29.013Z,57.96
2017-06-30T08:07:56.920Z,57.96
2017-06-30T08:10:24.845Z,58.02
2017-06-30T08:12:52.796Z,58.11
2017-06-30T08:15:20.720Z,58.08
2017-06-30T08:17:48.632Z,58.08
2017-06-30T08:20:16.548Z,58.16
2017-06-30T08:22:44.464Z,58.21
2017-06-30T08:25:12.382Z,58.22
2017-06-30T08:27:40.300Z,58.35
2017-06-30T08:30:08.236Z,58.27
2017-06-30T08:32:36.168Z,58.32
2017-06-30T08:35:04.089Z,58.27
2017-06-30T08:37:32.008Z,58.35
2017-06-30T08:39:59.934Z,58.42
2017-06-30T08:42:27.864Z,58.42
2017-06-30T08:44:55.835Z,58.38
2017-06-30T08:47:23.741Z,58.41
2017-06-30T08:49:51.656Z,58.45
2017-06-30T08:52:19.565Z,58.50
2017-06-30T08:54:47.473Z,58.59
2017-06-30T08:57:15.420Z,58.66
2017-06-30T08:59:43.329Z,58.60
2017-06-30T09:02:11.245Z,58.66
2017-06-30T09:04:39.167Z,58.69
2017-06-30T09:07:07.125Z,58.77
2017-06-30T09:09:35.042Z,58.69
2017-06-30T09:12:02.969Z,58.71
2017-06-30T09:14:30.917Z,58.73
2017-06-30T09:16:58.829Z,58.73
2017-06-30T09:19:26.766Z,58.68
2017-06-30T09:21:54.704Z,58.70
2017-06-30T09:24:22.644Z,58.64
2017-06-30T09:26:50.590Z,58.67
2017-06-30T09:29:18.497Z,58.65
2017-06-30T09:31:46.425Z,58.62
2017-06-30T09:34:14.366Z,58.52
2017-06-30T09:36:42.296Z,58.38
2017-06-30T09:39:10.244Z,58.46
2017-06-30T09:41:38.170Z,58.54
2017-06-30T09:44:06.109Z,58.58
2017-06-30T09:46:34.036Z,58.59
2017-06-30T09:49:01.956Z,58.55
2017-06-30T09:51:30.005Z,58.50
2017-06-30T09:53:57.933Z,58.51
2017-06-30T09:56:25.847Z,58.58
2017-06-30T09:58:53.761Z,58.55
2017-06-30T10:01:21.681Z,58.52
2017-06-30T10:03:49.640Z,58.57
2017-06-30T10:06:17.581Z,58.45
2017-06-30T10:08:45.500Z,58.61
2017-06-30T10:11:13.442Z,58.70
2017-06-30T10:13:41.417Z,58.62
2017-06-30T10:16:09.337Z,58.66
2017-06-30T10:18:37.252Z,58.80
2017-06-30T10:21:05.174Z,58.72
2017-06-30T10:23:33.097Z,57.78
2017-06-30T10:26:01.042Z,56.72
2017-06-30T10:28:28.985Z,56.54
2017-06-30T10:30:56.893Z,56.39
2017-06-30T10:33:24.817Z,56.30
2017-06-30T10:35:52.742Z,56.24
2017-06-30T10:38:20.668Z,56.19
2017-06-30T10:40:48.664Z,55.99
2017-06-30T10:43:16.587Z,55.87
2017-06-30T10:45:44.545Z,55.80
2017-06-30T10:48:12.490Z,55.79
2017-06-30T10:50:40.396Z,56.14
2017-06-30T10:53:08.308Z,56.11
2017-06-30T10:55:36.294Z,56.12
2017-06-30T10:58:04.214Z,55.64
2017-06-30T11:00:32.145Z,55.49
2017-06-30T11:03:00.066Z,55.21
2017-06-30T11:05:27.980Z,55.09
2017-06-30T11:07:55.900Z,55.05
2017-06-30T11:10:23.815Z,55.08
2017-06-30T11:12:51.934Z,54.87
2017-06-30T11:15:19.864Z,55.02
2017-06-30T11:17:47.788Z,55.13
2017-06-30T11:20:15.703Z,55.13
2017-06-30T11:22:43.623Z,54.00
2017-06-30T11:25:11.541Z,54.28
2017-06-30T11:27:39.449Z,54.56
2017-06-30T11:30:07.391Z,54.70
2017-06-30T11:32:35.309Z,54.77
2017-06-30T11:35:03.234Z,54.80
2017-06-30T11:37:31.371Z,54.90
2017-06-30T11:39:59.291Z,54.87
2017-06-30T11:42:27.213Z,54.81
2017-06-30T11:44:55.135Z,54.82
2017-06-30T11:47:23.069Z,54.94
2017-06-30T11:49:51.236Z,55.23
2017-06-30T11:52:19.162Z,55.36
2017-06-30T11:54:47.089Z,55.57
2017-06-30T11:57:15.041Z,55.84
2017-06-30T11:59:42.955Z,56.06
2017-06-30T12:02:10.903Z,56.25
2017-06-30T12:04:38.826Z,56.51
2017-06-30T12:07:06.796Z,56.63
2017-06-30T12:09:34.749Z,56.67
2017-06-30T12:12:02.685Z,56.67
2017-06-30T12:14:30.613Z,56.70
2017-06-30T12:16:58.548Z,56.74
2017-06-30T12:19:26.472Z,56.79
2017-06-30T12:21:54.418Z,56.74
2017-06-30T12:24:22.353Z,56.76
2017-06-30T12:26:50.317Z,56.75
2017-06-30T12:29:18.250Z,56.81
2017-06-30T12:31:46.217Z,56.84
2017-06-30T12:34:14.134Z,56.89
2017-06-30T12:36:42.090Z,56.93
2017-06-30T12:39:10.009Z,56.97
2017-06-30T12:41:37.953Z,57.08
2017-06-30T12:44:05.880Z,57.02
2017-06-30T12:46:33.812Z,57.00
2017-06-30T12:49:01.762Z,56.99
2017-06-30T12:51:29.682Z,56.98
2017-06-30T12:53:57.601Z,57.00
2017-06-30T12:56:25.549Z,57.09
2017-06-30T12:58:53.473Z,57.05
2017-06-30T13:01:21.397Z,57.03
2017-06-30T13:03:49.334Z,57.09
2017-06-30T13:06:17.273Z,57.20
2017-06-30T13:08:45.225Z,57.27
2017-06-30T13:11:13.167Z,57.32
2017-06-30T13:13:41.109Z,57.39
2017-06-30T13:16:09.049Z,57.29
2017-06-30T13:18:36.964Z,57.28
2017-06-30T13:21:04.882Z,57.34
2017-06-30T13:23:32.895Z,57.44
2017-06-30T13:26:00.849Z,57.56
2017-06-30T13:28:28.795Z,57.45
2017-06-30T13:30:56.741Z,57.49
2017-06-30T13:33:24.692Z,57.58
2017-06-30T13:35:52.713Z,57.56
2017-06-30T13:38:20.797Z,57.66
2017-06-30T13:40:48.756Z,57.73
2017-06-30T13:43:16.784Z,57.74
2017-06-30T13:45:44.852Z,57.77
2017-06-30T13:48:12.928Z,58.01
2017-06-30T13:50:40.851Z,58.16
2017-06-30T13:53:08.849Z,58.31
2017-06-30T13:55:36.777Z,58.15
2017-06-30T13:58:04.823Z,58.15
2017-06-30T14:00:32.800Z,58.20
2017-06-30T14:03:00.730Z,58.27
2017-06-30T14:05:28.895Z,58.20
2017-06-30T14:07:56.839Z,58.17
2017-06-30T14:10:24.785Z,58.25
2017-06-30T14:12:52.703Z,58.23
2017-06-30T14:15:20.636Z,58.15
2017-06-30T14:17:48.558Z,58.18
2017-06-30T14:20:16.494Z,57.99
2017-06-30T14:22:44.418Z,57.80
2017-06-30T14:25:12.424Z,57.80
2017-06-30T14:27:40.737Z,57.65
2017-06-30T14:30:08.683Z,57.54
2017-06-30T14:32:36.610Z,57.44
2017-06-30T14:35:04.536Z,57.40
2017-06-30T14:37:32.513Z,57.14
2017-06-30T14:40:00.439Z,57.07
2017-06-30T14:42:28.365Z,57.05
2017-06-30T14:44:56.286Z,57.04
2017-06-30T14:47:24.202Z,57.08
2017-06-30T14:49:56.005Z,56.95
2017-06-30T14:52:23.969Z,56.92
2017-06-30T14:54:51.897Z,56.91
2017-06-30T14:57:19.813Z,56.90
2017-06-30T14:59:47.760Z,57.08
2017-06-30T15:02:15.684Z,56.99
2017-06-30T15:04:43.665Z,56.81
2017-06-30T15:07:11.593Z,56.75
2017-06-30T15:09:39.501Z,56.75
2017-06-30T15:12:07.439Z,56.73
2017-06-30T15:14:35.364Z,56.79
2017-06-30T15:17:03.289Z,56.74
2017-06-30T15:19:31.234Z,56.71
2017-06-30T15:21:59.189Z,55.99
2017-06-30T15:24:27.092Z,55.53
2017-06-30T15:26:55.024Z,55.57
2017-06-30T15:29:22.943Z,55.94
2017-06-30T15:31:50.865Z,55.91
2017-06-30T15:34:18.826Z,55.95
2017-06-30T15:36:46.762Z,55.96
2017-06-30T15:39:14.676Z,55.91
2017-06-30T15:41:42.629Z,56.01
2017-06-30T15:44:10.565Z,56.07
2017-06-30T15:46:38.505Z,56.19
2017-06-30T15:49:06.457Z,56.17
2017-06-30T15:51:34.382Z,56.06
2017-06-30T15:54:02.339Z,56.14
2017-06-30T15:56:30.253Z,56.21
2017-06-30T15:58:58.186Z,56.14
2017-06-30T16:01:26.105Z,56.18
2017-06-30T16:03:54.017Z,56.29
2017-06-30T16:06:21.948Z,56.24
2017-06-30T16:08:49.872Z,56.31
2017-06-30T16:11:17.785Z,56.29
2017-06-30T16:13:45.706Z,56.37
2017-06-30T16:16:13.621Z,56.26
2017-06-30T16:18:41.556Z,56.37
2017-06-30T16:21:09.705Z,56.40
2017-06-30T16:23:37.627Z,56.42
2017-06-30T16:26:05.584Z,56.46
2017-06-30T16:28:33.501Z,56.52
2017-06-30T16:31:01.425Z,56.57
2017-06-30T16:33:29.517Z,56.14
2017-06-30T16:35:57.455Z,55.83
2017-06-30T16:38:25.955Z,55.43
2017-06-30T16:40:53.906Z,55.36
2017-06-30T16:43:21.838Z,55.20
2017-06-30T16:45:49.765Z,55.21
2017-06-30T16:48:17.693Z,55.09
2017-06-30T16:50:49.718Z,54.99
2017-06-30T16:53:17.672Z,54.89
2017-06-30T16:55:45.596Z,54.83
2017-06-30T16:58:13.532Z,54.74
2017-06-30T17:00:41.490Z,54.75
2017-06-30T17:03:09.411Z,54.77
2017-06-30T17:05:37.410Z,54.74
2017-06-30T17:08:05.337Z,54.68
2017-06-30T17:10:33.280Z,54.71
2017-06-30T17:13:01.197Z,55.21
2017-06-30T17:15:29.133Z,55.30
2017-06-30T17:17:57.062Z,55.14
2017-06-30T17:20:24.997Z,54.83
2017-06-30T17:22:52.921Z,54.75
2017-06-30T17:25:20.860Z,54.69
2017-06-30T17:27:49.052Z,54.57
2017-06-30T17:30:17.281Z,54.33
2017-06-30T17:32:45.299Z,54.43
2017-06-30T17:35:13.357Z,54.24
2017-06-30T17:37:41.283Z,54.17
2017-06-30T17:40:10.023Z,53.88
2017-06-30T17:42:38.192Z,54.00
2017-06-30T17:45:06.442Z,53.79
2017-06-30T17:47:34.600Z,53.72
2017-06-30T17:50:02.546Z,53.74
2017-06-30T17:52:30.699Z,53.72
2017-06-30T17:54:59.005Z,53.66
2017-06-30T17:57:27.381Z,53.71
2017-06-30T17:59:55.419Z,53.65
2017-06-30T18:02:23.352Z,53.90
2017-06-30T18:04:51.438Z,54.14
2017-06-30T18:07:19.472Z,54.30
2017-06-30T18:09:54.588Z,54.37
2017-06-30T18:12:22.536Z,54.50
2017-06-30T18:14:50.469Z,54.48
2017-06-30T18:17:18.433Z,54.62
2017-06-30T18:19:46.391Z,54.02
2017-06-30T18:22:14.341Z,53.73
2017-06-30T18:24:42.978Z,53.69
2017-06-30T18:40:05.007Z,54.60
2017-06-30T18:42:33.981Z,54.62
2017-06-30T18:45:02.566Z,54.67
2017-06-30T18:47:31.459Z,54.73
2017-06-30T18:49:59.453Z,54.79
2017-06-30T18:52:27.614Z,54.89
2017-06-30T18:54:55.554Z,54.89
2017-06-30T18:57:24.211Z,54.95
2017-06-30T18:59:52.149Z,54.95
2017-06-30T19:02:20.285Z,55.02
2017-06-30T19:04:48.221Z,55.05
2017-06-30T19:07:16.168Z,54.97
2017-06-30T19:09:44.126Z,55.04
2017-06-30T19:12:12.074Z,55.10
2017-06-30T19:14:40.036Z,55.19
2017-06-30T19:17:07.984Z,55.22
2017-06-30T19:19:35.905Z,55.25
2017-06-30T19:22:03.838Z,55.23
2017-06-30T19:24:31.790Z,55.30
2017-06-30T19:26:59.726Z,55.30
2017-06-30T19:29:27.697Z,55.37
2017-06-30T19:31:55.638Z,55.40
2017-06-30T19:34:23.556Z,55.39
2017-06-30T19:36:51.470Z,55.44
2017-06-30T19:39:19.421Z,55.47
2017-06-30T19:41:47.374Z,55.46
2017-06-30T19:44:15.318Z,55.47
2017-06-30T19:46:43.250Z,55.50
2017-06-30T19:49:11.177Z,55.63
2017-06-30T19:51:39.151Z,55.01
2017-06-30T19:54:07.092Z,55.02
2017-06-30T19:56:35.012Z,55.04
2017-06-30T19:59:02.947Z,55.11
2017-06-30T20:01:30.910Z,55.22
2017-06-30T20:03:58.847Z,55.30
2017-06-30T20:06:26.781Z,55.31
2017-06-30T20:08:54.721Z,55.33
2017-06-30T20:11:22.658Z,55.46
2017-06-30T20:13:50.589Z,55.57
2017-06-30T20:16:18.509Z,55.54
2017-06-30T20:18:46.423Z,55.56
2017-06-30T20:21:14.353Z,55.62
2017-06-30T20:23:42.308Z,55.64
2017-06-30T20:26:10.306Z,55.72
2017-06-30T20:28:38.253Z,55.74
2017-06-30T20:31:06.189Z,55.92
2017-06-30T20:33:34.140Z,55.92
2017-06-30T20:36:02.063Z,55.89
2017-06-30T20:38:29.990Z,55.83
2017-06-30T20:40:57.945Z,55.85
2017-06-30T20:43:25.877Z,55.92
2017-06-30T20:45:54.295Z,55.94
2017-06-30T20:48:22.273Z,56.01
2017-06-30T20:50:50.230Z,56.06
2017-06-30T20:53:18.404Z,56.01
2017-06-30T20:55:46.337Z,56.39
2017-06-30T20:58:14.269Z,56.45
2017-06-30T21:00:42.189Z,56.33
2017-06-30T21:03:10.109Z,56.27
2017-06-30T21:05:38.052Z,56.24
2017-06-30T21:08:05.970Z,56.22
2017-06-30T21:10:33.929Z,56.22
2017-06-30T21:13:01.861Z,56.21
2017-06-30T21:15:29.789Z,56.22
2017-06-30T21:17:57.703Z,56.23
2017-06-30T21:20:25.621Z,56.22
2017-06-30T21:22:53.586Z,56.24
2017-06-30T21:25:21.502Z,56.25
2017-06-30T21:27:49.431Z,56.27
2017-06-30T21:30:17.372Z,56.27
2017-06-30T21:32:45.301Z,56.27
2017-06-30T21:35:13.238Z,56.30
2017-06-30T21:37:41.188Z,56.32
2017-06-30T21:40:09.118Z,56.35
2017-06-30T21:42:37.081Z,56.36
2017-06-30T21:45:05.005Z,56.38
2017-06-30T21:47:32.965Z,56.41
2017-06-30T21:50:00.902Z,56.43
2017-06-30T21:52:28.830Z,56.48
2017-06-30T21:54:56.811Z,56.50
2017-06-30T21:57:24.744Z,56.48
2017-06-30T21:59:52.673Z,56.53
2017-06-30T22:02:20.592Z,56.53
2017-06-30T22:04:48.508Z,56.56
2017-06-30T22:07:16.430Z,56.59
2017-06-30T22:09:44.341Z,56.63
2017-06-30T22:12:12.289Z,56.63
2017-06-30T22:14:40.233Z,56.68
2017-06-30T22:17:08.166Z,56.64
2017-06-30T22:19:36.082Z,56.66
2017-06-30T22:22:04.030Z,56.68
2017-06-30T22:24:31.941Z,56.68
2017-06-30T22:26:59.879Z,56.76
2017-06-30T22:29:27.997Z,56.77
2017-06-30T22:31:55.944Z,56.79
2017-06-30T22:34:23.848Z,56.84
2017-06-30T22:36:51.770Z,56.86
2017-06-30T22:39:19.682Z,56.86
2017-06-30T22:41:47.602Z,56.89
2017-06-30T22:44:15.533Z,56.87
2017-06-30T22:46:43.456Z,56.94
2017-06-30T22:49:11.378Z,56.96
2017-06-30T22:51:39.329Z,56.99
2017-06-30T22:54:07.329Z,56.97
2017-06-30T22:56:35.272Z,57.00
2017-06-30T22:59:03.197Z,57.03
2017-06-30T23:01:31.124Z,57.04
2017-06-30T23:03:59.050Z,57.02
2017-06-30T23:06:26.965Z,57.08
2017-06-30T23:08:54.891Z,57.10
2017-06-30T23:11:22.833Z,57.10
2017-06-30T23:13:50.780Z,57.10
2017-06-30T23:16:18.716Z,57.10
2017-06-30T23:18:46.681Z,57.13
2017-06-30T23:21:14.860Z,57.16
2017-06-30T23:23:42.797Z,57.16
2017-06-30T23:26:10.753Z,57.21
2017-06-30T23:28:38.705Z,57.21
2017-06-30T23:31:06.636Z,57.25
2017-06-30T23:33:34.589Z,57.25
2017-06-30T23:36:02.536Z,57.30
2017-06-30T23:38:30.543Z,57.26
2017-06-30T23:40:58.481Z,57.28
2017-06-30T23:43:26.453Z,57.29
2017-06-30T23:45:54.382Z,57.30
2017-06-30T23:48:22.300Z,57.33
2017-06-30T23:50:50.216Z,57.37
2017-06-30T23:53:18.161Z,57.41
2017-06-30T23:55:46.085Z,57.39
2017-06-30T23:58:14.011Z,57.47
